createdAt,value
2018-12-13T00:00:52.897Z,1.92
2018-12-13T00:03:20.266Z,1.40
2018-12-13T00:05:47.838Z,1.57
2018-12-13T00:08:15.351Z,1.65
2018-12-13T00:10:42.749Z,1.85
2018-12-13T00:13:10.201Z,2.17
2018-12-13T00:15:37.614Z,2.05
2018-12-13T00:18:05.037Z,1.30
2018-12-13T00:20:32.526Z,2.10
2018-12-13T00:23:00.225Z,1.77
2018-12-13T00:25:27.689Z,2.05
2018-12-13T00:27:55.174Z,2.02
2018-12-13T00:30:22.639Z,2.10
2018-12-13T00:32:50.106Z,3.15
2018-12-13T00:35:17.528Z,1.95
2018-12-13T00:37:45.054Z,2.55
2018-12-13T00:40:12.578Z,2.58
2018-12-13T00:42:39.977Z,1.72
2018-12-13T00:45:07.517Z,1.87
2018-12-13T00:47:34.937Z,2.75
2018-12-13T00:50:02.430Z,2.58
2018-12-13T00:52:29.917Z,2.85
2018-12-13T00:54:57.389Z,2.75
2018-12-13T00:57:24.805Z,2.37
2018-12-13T00:59:52.209Z,2.08
2018-12-13T01:02:19.627Z,3.08
2018-12-13T01:04:47.046Z,2.45
2018-12-13T01:07:14.462Z,1.65
2018-12-13T01:09:41.862Z,2.15
2018-12-13T01:12:09.341Z,1.98
2018-12-13T01:14:36.816Z,3.02
2018-12-13T01:17:04.332Z,2.83
2018-12-13T01:19:31.809Z,1.70
2018-12-13T01:21:59.314Z,1.80
2018-12-13T01:24:26.746Z,1.35
2018-12-13T01:26:54.165Z,1.57
2018-12-13T01:29:21.620Z,2.10
2018-12-13T01:31:49.077Z,2.75
2018-12-13T01:34:16.553Z,1.92
2018-12-13T01:36:43.958Z,2.33
2018-12-13T01:39:11.497Z,2.50
2018-12-13T01:41:38.966Z,2.80
2018-12-13T01:44:06.346Z,2.22
2018-12-13T01:46:33.834Z,1.80
2018-12-13T01:49:01.265Z,1.17
2018-12-13T01:51:28.685Z,1.98
2018-12-13T01:53:56.097Z,2.10
2018-12-13T01:56:23.514Z,1.95
2018-12-13T01:58:51.062Z,2.95
2018-12-13T02:01:18.478Z,1.20
2018-12-13T02:03:45.998Z,1.32
2018-12-13T02:06:13.402Z,2.05
2018-12-13T02:08:40.943Z,1.80
2018-12-13T02:11:08.438Z,1.55
2018-12-13T02:13:36.049Z,2.70
2018-12-13T02:16:03.562Z,1.42
2018-12-13T02:18:30.958Z,2.00
2018-12-13T02:20:58.582Z,1.90
2018-12-13T02:23:26.066Z,1.92
2018-12-13T02:25:53.491Z,2.45
2018-12-13T02:28:20.973Z,1.65
2018-12-13T02:30:48.394Z,2.25
2018-12-13T02:33:15.863Z,1.30
2018-12-13T02:35:43.353Z,1.67
2018-12-13T02:38:10.850Z,2.92
2018-12-13T02:40:38.357Z,1.45
2018-12-13T02:43:05.866Z,1.90
2018-12-13T02:45:33.266Z,1.70
2018-12-13T02:48:00.770Z,2.17
2018-12-13T02:50:28.238Z,2.17
2018-12-13T02:52:55.639Z,2.50
2018-12-13T02:55:23.107Z,4.05
2018-12-13T02:57:50.658Z,1.70
2018-12-13T03:00:18.060Z,1.65
2018-12-13T03:02:45.595Z,2.20
2018-12-13T03:05:13.177Z,1.72
2018-12-13T03:07:40.694Z,2.62
2018-12-13T03:10:08.208Z,1.92
2018-12-13T03:12:35.728Z,2.10
2018-12-13T03:15:03.254Z,2.55
2018-12-13T03:17:30.726Z,2.30
2018-12-13T03:19:58.189Z,2.30
2018-12-13T03:22:25.593Z,3.08
2018-12-13T03:24:52.998Z,2.95
2018-12-13T03:27:20.514Z,2.90
2018-12-13T03:29:47.916Z,3.30
2018-12-13T03:32:15.402Z,1.85
2018-12-13T03:34:42.883Z,1.80
2018-12-13T03:37:10.374Z,1.95
2018-12-13T03:39:37.845Z,2.08
2018-12-13T03:42:05.281Z,2.95
2018-12-13T03:44:32.784Z,4.37
2018-12-13T03:47:00.264Z,1.72
2018-12-13T03:49:27.759Z,2.52
2018-12-13T03:51:55.250Z,2.80
2018-12-13T03:54:22.736Z,2.45
2018-12-13T03:56:50.202Z,1.10
2018-12-13T03:59:17.629Z,2.50
2018-12-13T04:01:45.047Z,2.70
2018-12-13T04:04:12.561Z,3.27
2018-12-13T04:06:40.029Z,2.30
2018-12-13T04:09:07.505Z,2.22
2018-12-13T04:11:35.011Z,2.17
2018-12-13T04:14:02.539Z,2.25
2018-12-13T04:16:29.943Z,2.30
2018-12-13T04:18:57.478Z,1.70
2018-12-13T04:21:24.951Z,1.45
2018-12-13T04:23:52.423Z,2.20
2018-12-13T04:26:19.830Z,2.45
2018-12-13T04:28:47.313Z,3.15
2018-12-13T04:31:14.809Z,2.70
2018-12-13T04:33:42.302Z,2.10
2018-12-13T04:36:09.709Z,2.27
2018-12-13T04:38:37.350Z,2.70
2018-12-13T04:41:04.865Z,1.90
2018-12-13T04:43:32.324Z,2.40
2018-12-13T04:45:59.794Z,2.17
2018-12-13T04:48:27.273Z,2.12
2018-12-13T04:50:54.689Z,3.65
2018-12-13T04:53:22.083Z,1.57
2018-12-13T04:55:49.582Z,2.12
2018-12-13T04:58:16.997Z,2.95
2018-12-13T05:00:44.470Z,3.05
2018-12-13T05:03:11.883Z,2.08
2018-12-13T05:05:39.415Z,1.45
2018-12-13T05:08:06.887Z,2.45
2018-12-13T05:10:52.222Z,2.42
2018-12-13T05:13:19.820Z,1.85
2018-12-13T05:15:47.326Z,1.57
2018-12-13T05:18:14.818Z,1.42
2018-12-13T05:20:42.290Z,4.30
2018-12-13T05:23:09.699Z,2.65
2018-12-13T05:25:37.209Z,2.30
2018-12-13T05:28:04.703Z,2.15
2018-12-13T05:30:32.239Z,3.02
2018-12-13T05:32:59.816Z,2.85
2018-12-13T05:35:27.303Z,2.35
2018-12-13T05:37:54.770Z,2.05
2018-12-13T05:40:22.227Z,1.70
2018-12-13T05:42:49.720Z,2.90
2018-12-13T05:45:17.214Z,2.60
2018-12-13T05:47:44.630Z,2.20
2018-12-13T05:50:12.055Z,2.95
2018-12-13T05:52:39.577Z,3.20
2018-12-13T05:55:08.479Z,2.35
2018-12-13T05:57:36.142Z,2.47
2018-12-13T06:00:05.549Z,2.58
2018-12-13T06:02:32.965Z,2.92
2018-12-13T06:05:00.373Z,2.87
2018-12-13T06:07:27.873Z,2.75
2018-12-13T06:09:55.287Z,3.25
2018-12-13T06:12:22.774Z,2.00
2018-12-13T06:14:50.185Z,2.50
2018-12-13T06:17:17.658Z,2.10
2018-12-13T06:19:45.154Z,2.37
2018-12-13T06:22:12.577Z,2.60
2018-12-13T06:24:40.050Z,2.92
2018-12-13T06:27:07.513Z,3.10
2018-12-13T06:29:35.011Z,2.10
2018-12-13T06:32:03.722Z,2.42
2018-12-13T06:34:31.135Z,2.42
2018-12-13T06:36:58.531Z,1.57
2018-12-13T06:39:25.949Z,2.00
2018-12-13T06:41:53.353Z,1.82
2018-12-13T06:44:20.777Z,2.20
2018-12-13T06:46:48.332Z,2.08
2018-12-13T06:49:15.807Z,2.67
2018-12-13T06:51:43.224Z,1.98
2018-12-13T06:54:10.717Z,2.45
2018-12-13T06:56:38.154Z,3.50
2018-12-13T06:59:05.576Z,1.90
2018-12-13T07:01:33.046Z,2.58
2018-12-13T07:04:00.450Z,3.00
2018-12-13T07:06:27.862Z,2.08
2018-12-13T07:08:55.350Z,2.15
2018-12-13T07:11:22.765Z,2.85
2018-12-13T07:13:50.239Z,2.35
2018-12-13T07:16:17.656Z,2.30
2018-12-13T07:18:45.150Z,1.75
2018-12-13T07:21:12.706Z,2.72
2018-12-13T07:23:40.125Z,2.30
2018-12-13T07:26:07.531Z,2.77
2018-12-13T07:28:35.038Z,2.08
2018-12-13T07:31:02.453Z,3.58
2018-12-13T07:33:29.954Z,3.22
2018-12-13T07:35:57.393Z,2.85
2018-12-13T07:38:25.015Z,2.90
2018-12-13T07:40:52.531Z,2.60
2018-12-13T07:43:20.024Z,1.70
2018-12-13T07:45:47.541Z,2.47
2018-12-13T07:48:14.938Z,2.08
2018-12-13T07:50:42.451Z,1.92
2018-12-13T07:53:10.022Z,3.72
2018-12-13T07:55:37.461Z,3.22
2018-12-13T07:58:04.955Z,1.35
2018-12-13T08:00:32.534Z,3.85
2018-12-13T08:02:59.931Z,5.25
2018-12-13T08:05:27.397Z,2.47
2018-12-13T08:07:54.894Z,3.15
2018-12-13T08:10:22.378Z,3.10
2018-12-13T08:12:49.773Z,3.08
2018-12-13T08:15:17.209Z,2.92
2018-12-13T08:17:44.617Z,2.22
2018-12-13T08:20:12.114Z,2.30
2018-12-13T08:22:39.598Z,2.37
2018-12-13T08:25:07.114Z,1.85
2018-12-13T08:27:34.623Z,3.10
2018-12-13T08:30:02.138Z,3.17
2018-12-13T08:32:29.746Z,2.40
2018-12-13T08:34:57.218Z,2.35
2018-12-13T08:37:24.626Z,2.92
2018-12-13T08:39:52.022Z,3.77
2018-12-13T08:42:19.534Z,2.47
2018-12-13T08:44:47.100Z,3.77
2018-12-13T08:47:14.675Z,3.00
2018-12-13T08:49:42.142Z,2.40
2018-12-13T08:52:09.618Z,2.83
2018-12-13T08:54:37.020Z,2.40
2018-12-13T08:57:04.553Z,3.05
2018-12-13T08:59:31.938Z,3.42
2018-12-13T09:01:59.366Z,3.40
2018-12-13T09:04:26.878Z,4.30
2018-12-13T09:06:54.366Z,2.92
2018-12-13T09:09:21.782Z,3.50
2018-12-13T09:11:49.218Z,3.37
2018-12-13T09:14:16.618Z,3.67
2018-12-13T09:16:44.124Z,3.60
2018-12-13T09:19:11.618Z,4.17
2018-12-13T09:21:39.151Z,2.92
2018-12-13T09:24:06.728Z,5.10
2018-12-13T09:26:34.206Z,3.55
2018-12-13T09:29:01.708Z,4.10
2018-12-13T09:31:29.234Z,4.62
2018-12-13T09:33:56.709Z,4.08
2018-12-13T09:36:24.281Z,6.00
2018-12-13T09:38:51.736Z,5.62
2018-12-13T09:41:19.219Z,4.72
2018-12-13T09:43:46.797Z,5.25
2018-12-13T09:46:14.368Z,4.78
2018-12-13T09:48:41.940Z,5.35
2018-12-13T09:51:09.370Z,4.78
2018-12-13T09:53:36.870Z,5.40
2018-12-13T09:56:04.366Z,6.53
2018-12-13T09:58:31.818Z,6.35
2018-12-13T10:00:59.302Z,5.35
2018-12-13T10:03:26.709Z,5.75
2018-12-13T10:05:54.134Z,5.45
2018-12-13T10:08:21.600Z,5.22
2018-12-13T10:10:49.079Z,5.60
2018-12-13T10:13:16.642Z,5.10
2018-12-13T10:15:44.114Z,5.22
2018-12-13T10:18:11.557Z,4.65
2018-12-13T10:20:39.151Z,7.05
2018-12-13T10:23:06.728Z,5.33
2018-12-13T10:25:34.298Z,6.12
2018-12-13T10:28:01.798Z,6.15
2018-12-13T10:30:29.290Z,5.15
2018-12-13T10:32:56.774Z,5.20
2018-12-13T10:35:24.377Z,5.30
2018-12-13T10:37:52.062Z,4.95
2018-12-13T10:40:19.631Z,4.65
2018-12-13T10:42:47.067Z,5.30
2018-12-13T10:45:14.538Z,6.20
2018-12-13T10:47:42.045Z,5.15
2018-12-13T10:50:09.562Z,5.30
2018-12-13T10:52:37.865Z,4.58
2018-12-13T10:55:05.386Z,5.60
2018-12-13T10:57:32.862Z,4.45
2018-12-13T11:00:00.395Z,5.53
2018-12-13T11:02:33.203Z,4.50
2018-12-13T11:05:00.827Z,4.15
2018-12-13T11:07:28.293Z,4.25
2018-12-13T11:09:55.705Z,4.80
2018-12-13T11:12:23.138Z,4.70
2018-12-13T11:14:50.566Z,4.75
2018-12-13T11:17:17.999Z,5.10
2018-12-13T11:19:45.602Z,3.22
2018-12-13T11:22:13.017Z,4.47
2018-12-13T11:24:40.494Z,4.45
2018-12-13T11:27:19.621Z,4.33
2018-12-13T11:32:51.874Z,3.85
2018-12-13T11:35:19.379Z,3.83
2018-12-13T11:37:46.782Z,3.67
2018-12-13T11:40:14.421Z,3.33
2018-12-13T11:42:41.891Z,3.83
2018-12-13T11:45:09.463Z,3.92
2018-12-13T11:47:36.893Z,4.45
2018-12-13T11:50:05.309Z,4.17
2018-12-13T11:52:32.899Z,4.50
2018-12-13T11:55:04.780Z,4.15
2018-12-13T11:57:32.245Z,4.40
2018-12-13T11:59:59.734Z,3.15
2018-12-13T12:02:27.133Z,3.80
2018-12-13T12:04:54.624Z,4.42
2018-12-13T12:07:22.111Z,3.90
2018-12-13T12:09:49.598Z,4.37
2018-12-13T12:12:17.017Z,4.58
2018-12-13T12:14:44.531Z,3.77
2018-12-13T12:17:12.013Z,3.40
2018-12-13T12:19:39.409Z,3.60
2018-12-13T12:22:06.849Z,4.53
2018-12-13T12:24:34.321Z,3.90
2018-12-13T12:27:01.806Z,3.55
2018-12-13T12:29:29.354Z,3.62
2018-12-13T12:31:56.837Z,3.42
2018-12-13T12:34:24.450Z,3.90
2018-12-13T12:36:51.967Z,3.10
2018-12-13T12:39:19.435Z,4.08
2018-12-13T12:41:47.012Z,4.75
2018-12-13T12:44:14.494Z,3.20
2018-12-13T12:46:41.997Z,3.75
2018-12-13T12:49:09.458Z,4.25
2018-12-13T12:51:36.890Z,3.80
2018-12-13T12:54:04.312Z,5.85
2018-12-13T12:56:31.834Z,3.83
2018-12-13T12:58:59.290Z,4.25
2018-12-13T13:01:26.763Z,3.35
2018-12-13T13:03:54.243Z,4.00
2018-12-13T13:06:21.655Z,3.10
2018-12-13T13:08:49.141Z,4.05
2018-12-13T13:11:16.650Z,4.75
2018-12-13T13:13:44.125Z,3.30
2018-12-13T13:16:11.610Z,4.20
2018-12-13T13:18:39.224Z,4.85
2018-12-13T13:21:06.740Z,3.62
2018-12-13T13:23:34.310Z,3.42
2018-12-13T13:26:01.817Z,2.92
2018-12-13T13:28:29.286Z,3.12
2018-12-13T13:30:56.718Z,5.33
2018-12-13T13:33:24.121Z,3.85
2018-12-13T13:35:51.551Z,3.52
2018-12-13T13:38:19.041Z,3.45
2018-12-13T13:40:46.530Z,3.80
2018-12-13T13:43:14.002Z,3.33
2018-12-13T13:45:41.438Z,3.47
2018-12-13T13:48:08.861Z,4.65
2018-12-13T13:50:36.276Z,4.30
2018-12-13T13:53:03.770Z,3.70
2018-12-13T13:55:31.362Z,3.30
2018-12-13T13:57:58.769Z,3.27
2018-12-13T14:00:26.242Z,3.00
2018-12-13T14:02:53.666Z,2.98
2018-12-13T14:05:21.200Z,3.92
2018-12-13T14:07:48.772Z,3.37
2018-12-13T14:10:16.278Z,3.55
2018-12-13T14:12:43.729Z,3.00
2018-12-13T14:15:11.174Z,3.90
2018-12-13T14:17:38.581Z,3.45
2018-12-13T14:20:06.514Z,3.20
2018-12-13T14:22:33.998Z,3.45
2018-12-13T14:25:01.577Z,3.45
2018-12-13T14:27:29.062Z,4.47
2018-12-13T14:29:56.553Z,2.42
2018-12-13T14:32:23.973Z,2.70
2018-12-13T14:34:57.364Z,2.67
2018-12-13T14:37:20.786Z,4.28
2018-12-13T14:39:48.261Z,3.15
2018-12-13T14:42:15.809Z,3.90
2018-12-13T14:44:43.249Z,3.95
2018-12-13T14:47:10.755Z,4.70
2018-12-13T14:49:38.237Z,2.65
2018-12-13T14:52:05.646Z,3.60
2018-12-13T14:54:33.054Z,3.55
2018-12-13T14:57:00.558Z,2.80
2018-12-13T14:59:27.962Z,3.65
2018-12-13T15:01:55.430Z,3.65
2018-12-13T15:04:23.042Z,3.80
2018-12-13T15:06:50.477Z,3.60
2018-12-13T15:09:17.902Z,2.52
2018-12-13T15:11:45.455Z,3.27
2018-12-13T15:14:13.026Z,2.85
2018-12-13T15:16:40.528Z,2.95
2018-12-13T15:19:08.010Z,2.55
2018-12-13T15:21:35.494Z,3.27
2018-12-13T15:24:02.987Z,3.52
2018-12-13T15:26:30.465Z,4.40
2018-12-13T15:28:57.952Z,3.05
2018-12-13T15:31:25.370Z,4.00
2018-12-13T15:33:52.786Z,3.00
2018-12-13T15:36:20.218Z,2.47
2018-12-13T15:38:47.626Z,4.33
2018-12-13T15:41:15.065Z,3.25
2018-12-13T15:43:42.469Z,3.05
2018-12-13T15:46:10.348Z,2.55
2018-12-13T15:48:37.789Z,3.52
2018-12-13T15:51:05.206Z,3.58
2018-12-13T15:53:32.677Z,3.75
2018-12-13T15:56:00.161Z,3.20
2018-12-13T15:58:27.594Z,2.55
2018-12-13T16:00:55.068Z,3.37
2018-12-13T16:03:22.525Z,3.50
2018-12-13T16:05:49.993Z,2.52
2018-12-13T16:08:17.496Z,4.55
2018-12-13T16:10:44.987Z,1.92
2018-12-13T16:13:12.458Z,2.80
2018-12-13T16:15:40.092Z,2.62
2018-12-13T16:18:07.560Z,3.08
2018-12-13T16:20:35.037Z,4.28
2018-12-13T16:23:02.469Z,3.00
2018-12-13T16:25:29.867Z,3.25
2018-12-13T16:27:57.285Z,2.60
2018-12-13T16:30:24.724Z,3.70
2018-12-13T16:32:52.275Z,3.70
2018-12-13T16:35:19.763Z,3.35
2018-12-13T16:37:47.268Z,2.55
2018-12-13T16:40:14.750Z,3.58
2018-12-13T16:42:42.262Z,3.10
2018-12-13T16:45:09.731Z,2.30
2018-12-13T16:47:37.307Z,2.90
2018-12-13T16:50:05.910Z,3.33
2018-12-13T16:52:33.405Z,3.00
2018-12-13T16:55:00.833Z,2.52
2018-12-13T16:57:28.509Z,4.42
2018-12-13T16:59:55.994Z,2.65
2018-12-13T17:02:23.495Z,3.08
2018-12-13T17:04:50.969Z,2.62
2018-12-13T17:07:18.450Z,5.65
2018-12-13T17:09:45.933Z,3.58
2018-12-13T17:12:13.421Z,2.80
2018-12-13T17:14:40.890Z,3.87
2018-12-13T17:17:08.487Z,4.05
2018-12-13T17:19:35.982Z,3.15
2018-12-13T17:22:03.403Z,3.58
2018-12-13T17:24:31.623Z,5.33
2018-12-13T17:26:59.013Z,3.67
2018-12-13T17:29:26.428Z,5.03
2018-12-13T17:31:53.858Z,3.27
2018-12-13T17:34:21.269Z,3.47
2018-12-13T17:36:48.758Z,2.37
2018-12-13T17:39:16.182Z,3.95
2018-12-13T17:41:43.653Z,4.55
2018-12-13T17:44:11.168Z,3.62
2018-12-13T17:46:38.587Z,2.83
2018-12-13T17:49:06.062Z,3.52
2018-12-13T17:51:33.479Z,3.00
2018-12-13T17:54:01.006Z,2.95
2018-12-13T17:56:28.442Z,2.80
2018-12-13T17:58:55.876Z,4.42
2018-12-13T18:01:23.364Z,3.42
2018-12-13T18:03:50.846Z,2.75
2018-12-13T18:06:18.342Z,3.30
2018-12-13T18:08:45.773Z,2.67
2018-12-13T18:11:13.267Z,2.95
2018-12-13T18:13:40.750Z,2.55
2018-12-13T18:16:08.182Z,2.70
2018-12-13T18:18:35.694Z,2.72
2018-12-13T18:21:03.197Z,2.92
2018-12-13T18:23:30.618Z,3.00
2018-12-13T18:25:58.028Z,2.75
2018-12-13T18:28:25.422Z,3.10
2018-12-13T18:30:52.889Z,4.10
2018-12-13T18:33:20.370Z,3.33
2018-12-13T18:35:47.862Z,3.50
2018-12-13T18:38:15.355Z,2.52
2018-12-13T18:40:42.834Z,3.83
2018-12-13T18:43:10.254Z,3.90
2018-12-13T18:45:37.758Z,4.28
2018-12-13T18:48:05.180Z,2.55
2018-12-13T18:50:32.625Z,3.45
2018-12-13T18:53:00.033Z,3.60
2018-12-13T18:55:27.447Z,2.95
2018-12-13T18:57:54.918Z,3.05
2018-12-13T19:00:22.535Z,4.72
2018-12-13T19:02:49.954Z,3.22
2018-12-13T19:05:17.361Z,2.87
2018-12-13T19:07:44.848Z,4.15
2018-12-13T19:10:12.418Z,2.75
2018-12-13T19:12:39.885Z,2.85
2018-12-13T19:15:07.325Z,3.52
2018-12-13T19:17:34.751Z,2.92
2018-12-13T19:20:02.194Z,4.92
2018-12-13T19:22:29.638Z,2.58
2018-12-13T19:24:57.111Z,2.72
2018-12-13T19:27:24.607Z,3.40
2018-12-13T19:29:52.074Z,2.90
2018-12-13T19:32:19.481Z,5.08
2018-12-13T19:34:46.899Z,2.95
2018-12-13T19:37:14.490Z,3.80
2018-12-13T19:39:41.905Z,3.45
2018-12-13T19:42:09.322Z,2.65
2018-12-13T19:44:36.718Z,3.87
2018-12-13T19:47:04.211Z,2.75
2018-12-13T19:49:31.675Z,2.60
2018-12-13T19:51:59.087Z,3.27
2018-12-13T19:54:26.575Z,2.80
2018-12-13T19:56:54.069Z,3.75
2018-12-13T19:59:21.486Z,2.92
2018-12-13T20:01:48.995Z,3.42
2018-12-13T20:04:16.469Z,3.00
2018-12-13T20:06:43.889Z,3.40
2018-12-13T20:09:11.402Z,3.12
2018-12-13T20:11:38.922Z,2.47
2018-12-13T20:14:06.405Z,2.70
2018-12-13T20:16:33.810Z,5.08
2018-12-13T20:19:01.238Z,3.22
2018-12-13T20:21:28.701Z,4.85
2018-12-13T20:23:56.220Z,3.25
2018-12-13T20:26:23.638Z,3.70
2018-12-13T20:28:51.110Z,3.90
2018-12-13T20:31:18.626Z,2.85
2018-12-13T20:33:46.030Z,3.60
2018-12-13T20:36:13.510Z,4.30
2018-12-13T20:38:40.915Z,3.77
2018-12-13T20:41:08.322Z,2.77
2018-12-13T20:43:35.873Z,3.22
2018-12-13T20:46:03.364Z,2.92
2018-12-13T20:48:31.026Z,3.08
2018-12-13T20:50:58.416Z,3.52
2018-12-13T20:53:25.877Z,2.85
2018-12-13T20:55:53.317Z,4.42
2018-12-13T20:58:20.903Z,3.60
2018-12-13T21:00:48.391Z,2.70
2018-12-13T21:03:15.870Z,2.55
2018-12-13T21:05:43.285Z,3.33
2018-12-13T21:08:10.709Z,2.33
2018-12-13T21:10:39.710Z,2.87
2018-12-13T21:13:07.114Z,2.90
2018-12-13T21:15:34.539Z,3.25
2018-12-13T21:18:01.954Z,3.65
2018-12-13T21:20:29.464Z,2.72
2018-12-13T21:22:56.958Z,4.40
2018-12-13T21:25:24.412Z,4.75
2018-12-13T21:27:51.985Z,2.92
2018-12-13T21:30:19.478Z,4.33
2018-12-13T21:32:46.873Z,3.25
2018-12-13T21:35:14.357Z,3.05
2018-12-13T21:37:41.754Z,3.00
2018-12-13T21:40:09.201Z,3.27
2018-12-13T21:42:36.618Z,3.30
2018-12-13T21:45:04.570Z,4.40
2018-12-13T21:47:32.082Z,3.45
2018-12-13T21:49:59.704Z,3.33
2018-12-13T21:52:27.335Z,4.42
2018-12-13T21:54:54.797Z,4.00
2018-12-13T21:57:22.310Z,3.05
2018-12-13T21:59:49.770Z,2.87
2018-12-13T22:02:17.262Z,4.78
2018-12-13T22:04:44.777Z,3.35
2018-12-13T22:07:12.269Z,4.45
2018-12-13T22:09:39.665Z,2.85
2018-12-13T22:12:07.170Z,4.50
2018-12-13T22:14:34.738Z,3.90
2018-12-13T22:17:02.173Z,2.55
2018-12-13T22:19:29.710Z,2.80
2018-12-13T22:21:57.202Z,3.00
2018-12-13T22:24:24.682Z,3.00
2018-12-13T22:26:52.109Z,3.12
2018-12-13T22:29:19.589Z,2.58
2018-12-13T22:31:47.553Z,2.83
2018-12-13T22:34:15.361Z,2.87
2018-12-13T22:36:43.292Z,3.47
2018-12-13T22:39:10.781Z,2.85
2018-12-13T22:41:38.448Z,2.60
2018-12-13T22:44:05.854Z,4.65
2018-12-13T22:46:33.298Z,4.30
2018-12-13T22:49:00.714Z,3.05
2018-12-13T22:51:28.220Z,2.90
2018-12-13T22:53:55.648Z,2.85
2018-12-13T22:56:23.129Z,3.90
2018-12-13T22:58:50.635Z,3.10
2018-12-13T23:01:18.214Z,4.08
2018-12-13T23:03:45.707Z,4.37
2018-12-13T23:06:13.190Z,3.67
2018-12-13T23:08:40.662Z,3.33
2018-12-13T23:11:08.681Z,3.87
2018-12-13T23:13:36.177Z,3.20
2018-12-13T23:16:03.706Z,2.87
2018-12-13T23:18:31.214Z,4.08
2018-12-13T23:20:58.689Z,3.22
2018-12-13T23:23:26.098Z,3.12
2018-12-13T23:25:53.498Z,4.28
2018-12-13T23:28:21.202Z,3.87
2018-12-13T23:30:48.594Z,4.65
2018-12-13T23:33:16.009Z,3.00
2018-12-13T23:35:43.406Z,2.90
2018-12-13T23:38:10.878Z,3.33
2018-12-13T23:40:38.288Z,3.85
2018-12-13T23:43:05.921Z,4.60
2018-12-13T23:45:33.325Z,4.70
2018-12-13T23:48:00.758Z,3.20
2018-12-13T23:50:28.170Z,3.75
2018-12-13T23:52:55.603Z,3.35
2018-12-13T23:55:23.166Z,3.85
2018-12-13T23:57:50.584Z,3.80
